sensor_id;sensor_type;location;lat;lon;timestamp;pressure;altitude;pressure_sealevel;temperature;humidity
50087;BME280;35967;50.718;7.050;2022-12-08T00:09:22;100335.72;;;5.56;84.44
50087;BME280;35967;50.718;7.050;2022-12-08T00:19:26;100336.44;;;5.69;83.59
50087;BME280;35967;50.718;7.050;2022-12-08T00:29:31;100317.75;;;5.67;83.70
50087;BME280;35967;50.718;7.050;2022-12-08T00:39:34;100312.59;;;5.76;83.93
50087;BME280;35967;50.718;7.050;2022-12-08T00:49:38;100298.94;;;5.76;83.03
50087;BME280;35967;50.718;7.050;2022-12-08T00:59:41;100292.19;;;5.72;83.92
50087;BME280;35967;50.718;7.050;2022-12-08T01:09:46;100281.91;;;5.78;83.89
50087;BME280;35967;50.718;7.050;2022-12-08T01:19:50;100277.72;;;5.67;83.43
50087;BME280;35967;50.718;7.050;2022-12-08T01:29:54;100282.81;;;5.72;83.22
50087;BME280;35967;50.718;7.050;2022-12-08T01:39:57;100284.53;;;5.72;83.49
50087;BME280;35967;50.718;7.050;2022-12-08T01:50:03;100280.34;;;5.64;82.58
50087;BME280;35967;50.718;7.050;2022-12-08T02:00:10;100270.13;;;5.64;83.11
50087;BME280;35967;50.718;7.050;2022-12-08T02:10:21;100262.41;;;5.71;82.53
50087;BME280;35967;50.718;7.050;2022-12-08T02:20:43;100253.91;;;5.67;82.44
50087;BME280;35967;50.718;7.050;2022-12-08T02:30:56;100243.66;;;5.73;83.26
50087;BME280;35967;50.718;7.050;2022-12-08T02:41:17;100235.94;;;5.78;83.00
50087;BME280;35967;50.718;7.050;2022-12-08T02:51:20;100224.94;;;5.73;83.08
50087;BME280;35967;50.718;7.050;2022-12-08T03:01:37;100209.50;;;5.82;83.33
50087;BME280;35967;50.718;7.050;2022-12-08T03:11:49;100201.06;;;5.74;83.51
50087;BME280;35967;50.718;7.050;2022-12-08T03:21:57;100191.91;;;5.52;83.26
50087;BME280;35967;50.718;7.050;2022-12-08T03:32:08;100177.56;;;5.37;84.77
50087;BME280;35967;50.718;7.050;2022-12-08T03:42:14;100167.94;;;5.67;83.53
50087;BME280;35967;50.718;7.050;2022-12-08T03:52:17;100152.66;;;5.64;83.64
50087;BME280;35967;50.718;7.050;2022-12-08T04:02:21;100135.63;;;5.65;83.92
50087;BME280;35967;50.718;7.050;2022-12-08T04:12:25;100131.34;;;5.65;84.56
50087;BME280;35967;50.718;7.050;2022-12-08T04:22:29;100122.03;;;5.61;84.39
50087;BME280;35967;50.718;7.050;2022-12-08T04:32:33;100117.06;;;5.50;84.33
50087;BME280;35967;50.718;7.050;2022-12-08T04:42:37;100107.56;;;5.63;84.06
50087;BME280;35967;50.718;7.050;2022-12-08T04:52:40;100130.78;;;5.39;84.66
50087;BME280;35967;50.718;7.050;2022-12-08T05:02:44;100101.69;;;5.53;85.36
50087;BME280;35967;50.718;7.050;2022-12-08T05:12:48;100112.03;;;5.38;86.64
50087;BME280;35967;50.718;7.050;2022-12-08T05:22:52;100087.31;;;5.45;87.03
50087;BME280;35967;50.718;7.050;2022-12-08T05:32:55;100096.63;;;5.49;86.52
50087;BME280;35967;50.718;7.050;2022-12-08T05:43:00;100083.88;;;5.47;85.90
50087;BME280;35967;50.718;7.050;2022-12-08T05:53:03;100074.56;;;5.42;nan
50087;BME280;35967;50.718;7.050;2022-12-08T06:03:09;100069.31;;;5.59;85.04
50087;BME280;35967;50.718;7.050;2022-12-08T06:13:14;100066.81;;;5.54;85.09
50087;BME280;35967;50.718;7.050;2022-12-08T06:23:18;100072.06;;;5.39;85.46
50087;BME280;35967;50.718;7.050;2022-12-08T06:33:22;100073.66;;;5.49;85.55
50087;BME280;35967;50.718;7.050;2022-12-08T06:43:27;100078.72;;;5.52;84.62
50087;BME280;35967;50.718;7.050;2022-12-08T06:53:30;100088.09;;;5.50;84.42
50087;BME280;35967;50.718;7.050;2022-12-08T07:03:35;100078.91;;;5.35;84.48
50087;BME280;35967;50.718;7.050;2022-12-08T07:13:39;100082.31;;;5.35;83.79
50087;BME280;35967;50.718;7.050;2022-12-08T07:23:44;100089.16;;;5.32;84.13
50087;BME280;35967;50.718;7.050;2022-12-08T07:33:55;100091.66;;;5.36;83.85
50087;BME280;35967;50.718;7.050;2022-12-08T07:43:59;100086.50;;;5.44;84.32
50087;BME280;35967;50.718;7.050;2022-12-08T07:54:03;100082.28;;;5.39;83.99
50087;BME280;35967;50.718;7.050;2022-12-08T08:04:07;100088.84;;;5.61;83.57
50087;BME280;35967;50.718;7.050;2022-12-08T08:14:11;100088.00;;;5.62;83.15
50087;BME280;35967;50.718;7.050;2022-12-08T08:24:16;100086.28;;;5.63;83.46
50087;BME280;35967;50.718;7.050;2022-12-08T08:34:19;100092.25;;;5.63;83.07
50087;BME280;35967;50.718;7.050;2022-12-08T08:44:23;100096.63;;;5.49;82.58
50087;BME280;35967;50.718;7.050;2022-12-08T08:54:27;100096.47;;;5.66;81.89
50087;BME280;35967;50.718;7.050;2022-12-08T09:04:31;100093.94;;;5.61;82.53
50087;BME280;35967;50.718;7.050;2022-12-08T09:14:35;100089.66;;;5.65;82.62
50087;BME280;35967;50.718;7.050;2022-12-08T09:24:39;100094.59;;;5.80;82.99
50087;BME280;35967;50.718;7.050;2022-12-08T09:34:42;100098.91;;;5.74;81.15
50087;BME280;35967;50.718;7.050;2022-12-08T09:44:56;100089.13;;;5.33;81.65
50087;BME280;35967;50.718;7.050;2022-12-08T09:55:03;100089.72;;;5.59;81.23
50087;BME280;35967;50.718;7.050;2022-12-08T10:05:13;100078.72;;;5.53;81.40
50087;BME280;35967;50.718;7.050;2022-12-08T10:15:30;100079.69;;;5.42;82.26
50087;BME280;35967;50.718;7.050;2022-12-08T10:25:42;100060.84;;;5.55;80.91
50087;BME280;35967;50.718;7.050;2022-12-08T10:35:48;100042.75;;;6.39;78.96
50087;BME280;35967;50.718;7.050;2022-12-08T10:45:53;100037.50;;;5.84;79.74
50087;BME280;35967;50.718;7.050;2022-12-08T10:56:05;100031.34;;;6.01;79.80
50087;BME280;35967;50.718;7.050;2022-12-08T11:06:13;100021.59;;;6.29;77.92
50087;BME280;35967;50.718;7.050;2022-12-08T11:19:21;100010.84;;;6.07;79.32
50087;BME280;35967;50.718;7.050;2022-12-08T11:29:30;100013.38;;;6.09;77.24
50087;BME280;35967;50.718;7.050;2022-12-08T11:39:39;100012.53;;;6.08;78.01
50087;BME280;35967;50.718;7.050;2022-12-08T11:49:47;99998.94;;;6.06;78.55
50087;BME280;35967;50.718;7.050;2022-12-08T12:00:00;99987.81;;;6.09;76.37
50087;BME280;35967;50.718;7.050;2022-12-08T12:10:34;99980.88;;;6.17;75.53
50087;BME280;35967;50.718;7.050;2022-12-08T12:20:46;99977.38;;;6.24;75.26
50087;BME280;35967;50.718;7.050;2022-12-08T12:30:56;99970.59;;;6.22;74.75
50087;BME280;35967;50.718;7.050;2022-12-08T12:41:03;99960.72;;;6.00;72.63
50087;BME280;35967;50.718;7.050;2022-12-08T12:51:33;99951.94;;;6.15;72.85
50087;BME280;35967;50.718;7.050;2022-12-08T13:01:56;99956.19;;;6.16;71.41
50087;BME280;35967;50.718;7.050;2022-12-08T13:12:06;99940.91;;;6.14;71.85
50087;BME280;35967;50.718;7.050;2022-12-08T13:22:46;99940.03;;;6.14;70.06
50087;BME280;35967;50.718;7.050;2022-12-08T13:32:58;99951.50;;;5.85;68.45
50087;BME280;35967;50.718;7.050;2022-12-08T13:43:28;99938.59;;;5.94;67.48
50087;BME280;35967;50.718;7.050;2022-12-08T13:53:57;99930.16;;;5.89;67.50
50087;BME280;35967;50.718;7.050;2022-12-08T14:04:23;99931.78;;;5.96;67.77
50087;BME280;35967;50.718;7.050;2022-12-08T14:14:48;99934.34;;;5.95;67.37
50087;BME280;35967;50.718;7.050;2022-12-08T14:25:12;99929.09;;;6.07;67.43
50087;BME280;35967;50.718;7.050;2022-12-08T14:35:22;99939.50;;;5.90;68.03
50087;BME280;35967;50.718;7.050;2022-12-08T14:45:27;99942.94;;;5.88;67.24
50087;BME280;35967;50.718;7.050;2022-12-08T14:55:34;99949.81;;;5.84;67.06
50087;BME280;35967;50.718;7.050;2022-12-08T15:05:39;99949.78;;;5.85;67.97
50087;BME280;35967;50.718;7.050;2022-12-08T15:15:46;99953.06;;;5.94;68.80
50087;BME280;35967;50.718;7.050;2022-12-08T15:25:52;99952.25;;;5.93;69.15
50087;BME280;35967;50.718;7.050;2022-12-08T15:35:56;99960.16;;;5.75;67.97
50087;BME280;35967;50.718;7.050;2022-12-08T15:46:00;99956.09;;;5.61;68.85
50087;BME280;35967;50.718;7.050;2022-12-08T15:56:06;99969.13;;;5.38;68.84
50087;BME280;35967;50.718;7.050;2022-12-08T16:06:30;99956.19;;;5.52;68.72
50087;BME280;35967;50.718;7.050;2022-12-08T16:16:53;99957.88;;;5.56;68.25
50087;BME280;35967;50.718;7.050;2022-12-08T16:26:58;99947.66;;;5.56;67.80
50087;BME280;35967;50.718;7.050;2022-12-08T16:37:23;99938.44;;;5.43;67.98
50087;BME280;35967;50.718;7.050;2022-12-08T16:47:28;99933.41;;;5.36;68.23
50087;BME280;35967;50.718;7.050;2022-12-08T16:57:31;99937.84;;;5.22;68.42
50087;BME280;35967;50.718;7.050;2022-12-08T17:07:36;99941.91;;;5.39;68.81
50087;BME280;35967;50.718;7.050;2022-12-08T17:17:40;99941.84;;;5.43;69.11
50087;BME280;35967;50.718;7.050;2022-12-08T17:27:44;99933.41;;;5.36;69.44
50087;BME280;35967;50.718;7.050;2022-12-08T17:37:48;99935.94;;;5.40;69.39
50087;BME280;35967;50.718;7.050;2022-12-08T17:47:52;99930.06;;;5.33;69.92
50087;BME280;35967;50.718;7.050;2022-12-08T17:57:55;99930.94;;;5.30;70.13
50087;BME280;35967;50.718;7.050;2022-12-08T18:07:59;99932.00;;;5.14;71.06
50087;BME280;35967;50.718;7.050;2022-12-08T18:18:03;99930.19;;;5.22;71.40
50087;BME280;35967;50.718;7.050;2022-12-08T18:28:07;99924.94;;;5.34;75.02
50087;BME280;35967;50.718;7.050;2022-12-08T18:38:11;99927.66;;;5.19;72.71
50087;BME280;35967;50.718;7.050;2022-12-08T18:48:16;99931.97;;;5.15;72.06
50087;BME280;35967;50.718;7.050;2022-12-08T18:58:19;99921.00;;;5.07;71.14
50087;BME280;35967;50.718;7.050;2022-12-08T19:08:23;99932.09;;;5.04;70.94
50087;BME280;35967;50.718;7.050;2022-12-08T19:18:32;99932.09;;;5.04;70.76
50087;BME280;35967;50.718;7.050;2022-12-08T19:28:36;99945.63;;;5.11;71.81
50087;BME280;35967;50.718;7.050;2022-12-08T19:38:41;99939.94;;;4.87;70.57
50087;BME280;35967;50.718;7.050;2022-12-08T19:49:03;99942.53;;;4.83;71.95
50087;BME280;35967;50.718;7.050;2022-12-08T19:59:06;99939.22;;;4.71;70.67
50087;BME280;35967;50.718;7.050;2022-12-08T20:09:11;99937.59;;;4.67;70.82
50087;BME280;35967;50.718;7.050;2022-12-08T20:19:14;99933.41;;;4.60;71.43
50087;BME280;35967;50.718;7.050;2022-12-08T20:29:19;99934.25;;;4.59;70.46
50087;BME280;35967;50.718;7.050;2022-12-08T20:39:23;99930.06;;;4.53;70.19
50087;BME280;35967;50.718;7.050;2022-12-08T20:49:27;99922.47;;;4.46;70.84
50087;BME280;35967;50.718;7.050;2022-12-08T20:59:35;99927.66;;;4.35;70.31
50087;BME280;35967;50.718;7.050;2022-12-08T21:09:40;99935.41;;;4.21;69.88
50087;BME280;35967;50.718;7.050;2022-12-08T21:19:43;99930.38;;;4.15;72.21
50087;BME280;35967;50.718;7.050;2022-12-08T21:29:47;99936.41;;;4.04;71.99
50087;BME280;35967;50.718;7.050;2022-12-08T21:39:51;99932.94;;;4.16;72.77
50087;BME280;35967;50.718;7.050;2022-12-08T21:49:55;99934.59;;;4.19;71.29
50087;BME280;35967;50.718;7.050;2022-12-08T21:59:59;99932.97;;;4.12;70.17
50087;BME280;35967;50.718;7.050;2022-12-08T22:10:07;99934.53;;;4.25;70.01
50087;BME280;35967;50.718;7.050;2022-12-08T22:20:14;99924.25;;;4.37;68.98
50087;BME280;35967;50.718;7.050;2022-12-08T22:30:18;99932.72;;;4.42;70.80
50087;BME280;35967;50.718;7.050;2022-12-08T22:40:22;99941.47;;;4.06;71.57
50087;BME280;35967;50.718;7.050;2022-12-08T22:50:26;99929.75;;;3.83;71.77
50087;BME280;35967;50.718;7.050;2022-12-08T23:00:30;99932.84;;;4.24;71.36
50087;BME280;35967;50.718;7.050;2022-12-08T23:10:34;99931.97;;;4.28;71.14
50087;BME280;35967;50.718;7.050;2022-12-08T23:20:37;99930.34;;;4.18;71.25
50087;BME280;35967;50.718;7.050;2022-12-08T23:30:42;99925.16;;;4.32;71.01
50087;BME280;35967;50.718;7.050;2022-12-08T23:40:45;99918.38;;;4.28;71.08
50087;BME280;35967;50.718;7.050;2022-12-08T23:50:49;99912.31;;;4.41;70.57
